TimeMST,TemperatureF,Dew PointF,Humidity,Sea Level PressureIn,VisibilityMPH,Wind Direction,Wind SpeedMPH,Gust SpeedMPH,PrecipitationIn,Events,Conditions,WindDirDegrees,DateUTC
12:15 AM,42.8,40.8,93,29.64,2.0,NE,6.9,-,N/A,,Light Drizzle,40,2013-03-09 07:15:00
12:35 AM,42.8,41.0,93,29.64,2.5,North,10.4,-,N/A,,Overcast,10,2013-03-09 07:35:00
12:55 AM,42.6,41.0,94,29.63,2.5,NNE,10.4,-,N/A,,Overcast,20,2013-03-09 07:55:00
1:15 AM,42.8,41.2,94,29.64,2.5,NE,9.2,-,N/A,,Overcast,40,2013-03-09 08:15:00
1:35 AM,43.2,41.9,95,29.62,1.2,NE,10.4,-,N/A,Thunderstorm,Overcast,40,2013-03-09 08:35:00
1:55 AM,43.2,41.9,95,29.61,1.0,NNE,6.9,-,N/A,,Overcast,30,2013-03-09 08:55:00
2:15 AM,43.7,42.1,94,29.59,0.5,NNE,8.1,-,N/A,Fog-Thunderstorm,Fog,20,2013-03-09 09:15:00
2:35 AM,43.3,42.1,95,29.57,0.5,NE,4.6,-,N/A,Rain-Thunderstorm,Light Thunderstorms and Rain,40,2013-03-09 09:35:00
2:55 AM,43.9,42.8,96,29.55,0.2,North,8.1,-,N/A,Fog-Thunderstorm,Fog,10,2013-03-09 09:55:00
3:15 AM,44.1,42.8,95,29.57,0.2,WNW,10.4,-,N/A,Fog,Fog,300,2013-03-09 10:15:00
3:35 AM,41.9,40.5,95,29.57,2.5,NNW,20.7,24.2,N/A,,Overcast,330,2013-03-09 10:35:00
3:55 AM,40.1,38.8,95,29.57,2.5,North,26.5,32.2,N/A,Rain,Light Rain,350,2013-03-09 10:55:00
4:15 AM,37.6,36.3,95,29.58,3.0,North,28.8,33.4,N/A,Rain,Light Rain,360,2013-03-09 11:15:00
4:35 AM,36.7,35.2,95,29.57,3.0,North,28.8,35.7,N/A,Rain,Rain,360,2013-03-09 11:35:00
4:55 AM,36.5,35.1,95,29.57,4.0,North,28.8,35.7,N/A,,Overcast,10,2013-03-09 11:55:00
5:15 AM,37.0,35.6,95,29.57,4.0,North,28.8,34.5,N/A,,Light Drizzle,10,2013-03-09 12:15:00
5:35 AM,38.3,36.5,93,29.57,5.0,NNE,27.6,34.5,N/A,Rain,Light Rain,20,2013-03-09 12:35:00
5:55 AM,38.7,36.5,92,29.56,7.0,NNE,25.3,33.4,N/A,,Overcast,20,2013-03-09 12:55:00
6:15 AM,38.3,36.5,93,29.57,5.0,North,23.0,31.1,N/A,,Overcast,10,2013-03-09 13:15:00
6:35 AM,37.4,35.4,93,29.58,4.0,North,27.6,35.7,N/A,,Overcast,10,2013-03-09 13:35:00
6:55 AM,37.0,34.9,92,29.58,3.0,North,27.6,33.4,N/A,,Light Drizzle,10,2013-03-09 13:55:00
7:15 AM,37.2,34.9,91,29.58,2.0,North,31.1,34.5,0.01,Rain,Light Rain,360,2013-03-09 14:15:00
7:35 AM,37.0,34.7,91,29.59,3.0,North,24.2,34.5,0.01,Rain,Light Rain,10,2013-03-09 14:35:00
7:55 AM,37.6,35.1,91,29.59,5.0,North,26.5,32.2,0.01,,Light Drizzle,360,2013-03-09 14:55:00
8:15 AM,37.4,34.3,89,29.62,10.0,North,16.1,26.5,N/A,,Overcast,360,2013-03-09 15:15:00
8:35 AM,35.8,32.7,89,29.63,10.0,North,21.9,27.6,N/A,,Overcast,360,2013-03-09 15:35:00
8:55 AM,34.3,31.6,90,29.63,10.0,North,20.7,28.8,N/A,,Light Drizzle,360,2013-03-09 15:55:00
9:15 AM,33.8,31.1,90,29.63,5.0,North,27.6,-,N/A,Snow,Light Snow,360,2013-03-09 16:15:00
9:35 AM,33.4,30.6,89,29.63,1.5,North,28.8,34.5,0.01,Snow,Light Snow,350,2013-03-09 16:35:00
9:55 AM,32.4,29.8,90,29.65,0.8,North,27.6,34.5,0.02,Snow,Light Snow,360,2013-03-09 16:55:00
10:15 AM,32.2,29.8,91,29.66,0.5,North,21.9,31.1,N/A,Snow,Snow,360,2013-03-09 17:15:00
10:35 AM,32.0,29.8,92,29.67,0.2,North,20.7,26.5,N/A,Snow,Snow,360,2013-03-09 17:35:00
10:55 AM,32.0,29.8,92,29.68,0.8,North,20.7,28.8,N/A,Snow,Light Snow,360,2013-03-09 17:55:00
11:15 AM,31.6,29.3,91,29.68,0.2,North,20.7,27.6,0.01,Snow,Snow,360,2013-03-09 18:15:00
11:35 AM,30.9,28.6,91,29.68,0.2,North,25.3,35.7,0.02,Snow,Heavy Snow,360,2013-03-09 18:35:00
11:55 AM,30.6,28.4,92,29.68,0.2,North,25.3,32.2,0.02,Snow,Heavy Snow,360,2013-03-09 18:55:00
12:15 PM,30.4,28.4,92,29.69,0.2,North,25.3,31.1,N/A,Snow,Snow,360,2013-03-09 19:15:00
12:35 PM,30.6,28.4,92,29.68,-9999.0,North,24.2,-,N/A,,Overcast,10,2013-03-09 19:35:00
12:55 PM,30.9,29.1,93,29.68,-9999.0,North,25.3,31.1,N/A,,Overcast,360,2013-03-09 19:55:00
1:15 PM,30.9,29.1,93,29.67,-9999.0,North,33.4,39.1,N/A,,Overcast,360,2013-03-09 20:15:00
1:35 PM,31.1,29.1,92,29.69,-9999.0,North,31.1,35.7,0.01,,Overcast,360,2013-03-09 20:35:00
1:55 PM,31.1,29.3,93,29.70,-9999.0,North,27.6,36.8,0.01,,Overcast,360,2013-03-09 20:55:00
2:15 PM,31.5,29.3,92,29.71,-9999.0,North,28.8,36.8,N/A,,Overcast,360,2013-03-09 21:15:00
2:35 PM,31.6,29.7,92,29.72,-9999.0,North,26.5,31.1,N/A,,Overcast,360,2013-03-09 21:35:00
2:55 PM,32.0,30.2,93,29.73,-9999.0,North,23.0,-,N/A,,Overcast,360,2013-03-09 21:55:00
3:15 PM,32.5,31.1,94,29.73,-9999.0,North,24.2,32.2,N/A,,Overcast,360,2013-03-09 22:15:00
3:35 PM,33.1,31.5,94,29.73,-9999.0,North,29.9,35.7,0.01,,Overcast,360,2013-03-09 22:35:00
3:55 PM,33.1,31.6,94,29.74,-9999.0,North,26.5,34.5,0.02,,Overcast,360,2013-03-09 22:55:00
4:15 PM,33.4,31.8,94,29.75,-9999.0,North,25.3,33.4,0.01,,Overcast,360,2013-03-09 23:15:00
4:35 PM,33.8,32.0,93,29.76,-9999.0,North,23.0,29.9,0.02,,Overcast,10,2013-03-09 23:35:00
4:55 PM,33.8,32.0,93,29.77,1.5,North,25.3,-,0.02,Snow,Light Snow,10,2013-03-09 23:55:00
5:15 PM,34.0,32.0,92,29.77,1.0,North,29.9,38.0,0.01,Snow,Light Snow,360,2013-03-10 00:15:00
5:35 PM,33.8,32.0,93,29.79,0.5,North,32.2,41.4,0.02,Snow,Light Snow,10,2013-03-10 00:35:00
5:55 PM,33.8,32.0,93,29.79,1.2,North,33.4,39.1,0.02,Snow,Light Snow,10,2013-03-10 00:55:00
6:15 PM,33.8,31.5,91,29.80,2.0,North,27.6,39.1,0.01,Snow,Light Snow,10,2013-03-10 01:15:00
6:35 PM,34.0,31.1,89,29.82,2.5,North,28.8,39.1,0.01,Snow,Light Snow,360,2013-03-10 01:35:00
6:55 PM,34.2,30.7,87,29.84,4.0,North,27.6,33.4,0.01,,Overcast,10,2013-03-10 01:55:00
7:15 PM,34.0,30.7,88,29.85,4.0,North,28.8,35.7,N/A,,Overcast,360,2013-03-10 02:15:00
7:35 PM,34.0,30.4,87,29.87,3.0,North,31.1,34.5,N/A,,Overcast,360,2013-03-10 02:35:00
7:55 PM,34.0,30.2,86,29.89,5.0,North,26.5,35.7,N/A,,Overcast,360,2013-03-10 02:55:00
8:15 PM,33.8,30.2,87,29.90,2.5,North,24.2,35.7,N/A,,Overcast,360,2013-03-10 03:15:00
8:35 PM,33.4,30.2,88,29.91,2.0,North,28.8,40.3,N/A,,Overcast,360,2013-03-10 03:35:00
8:55 PM,33.1,29.5,87,29.92,2.0,North,29.9,39.1,N/A,,Overcast,360,2013-03-10 03:55:00
9:15 PM,32.4,28.2,85,29.93,1.8,North,38.0,43.7,N/A,Snow,Light Snow,10,2013-03-10 04:15:00
9:35 PM,31.6,27.7,85,29.95,1.2,North,35.7,42.6,N/A,Snow,Light Snow,360,2013-03-10 04:35:00
9:55 PM,31.1,26.6,83,29.97,2.0,North,28.8,38.0,N/A,,Scattered Clouds,360,2013-03-10 04:55:00
10:15 PM,30.7,25.9,82,29.97,2.5,North,27.6,40.3,N/A,,Clear,360,2013-03-10 05:15:00
10:35 PM,30.0,25.3,83,29.98,4.0,North,28.8,36.8,N/A,,Haze,360,2013-03-10 05:35:00
10:55 PM,29.1,24.3,82,29.98,3.0,North,29.9,35.7,N/A,,Haze,360,2013-03-10 05:55:00
11:15 PM,28.4,23.7,83,29.98,7.0,North,26.5,33.4,N/A,,Clear,360,2013-03-10 06:15:00
11:35 PM,28.4,23.2,81,29.99,4.0,North,28.8,35.7,N/A,,Haze,360,2013-03-10 06:35:00
11:55 PM,28.0,22.6,80,30.00,3.0,North,27.6,35.7,N/A,,Haze,360,2013-03-10 06:55:00